Terminal Aerodrome Forecast
Issued by NWS Greer, SC

Home | Current Version | Previous Version | Text Only | Print | Product List | Glossary On
Versions: 1 2 3 4 5 6 7 8 9 10 11 12 13 14 15 16 17 18 19 20 21 22 23 24 25 26 27 28 29 30 31 32 33 34 35 36 37 38 39 40 41 42 43 44 45 46 47 48 49 50
000
FTUS42 KGSP 271733
TAFCLT
TAF
KCLT 271733Z 2718/2818 21005KT P6SM SCT020 BKN035
     FM272200 20004KT P6SM BKN040
      TEMPO 2722/2802 3SM -TSRA OVC025CB
     FM280200 VRB02KT P6SM VCSH BKN040
     FM281000 20003KT 5SM BR SCT005 BKN100
     FM281300 19005KT P6SM SCT015 BKN050=

USA.gov is the U.S. government's official web portal to all federal, state and local government web resources and services.